Time;durP1;ratioP1;P1;durP2;ratioP2;P2;SDS_P1;SDS_P2;PMS_P1;PMS_P2;Temp;Humidity;BMP_temperature;BMP_pressure;BME280_temperature;BME280_humidity;BME280_pressure;Samples;Min_cycle;Max_cycle;Signal;HPM_P1;HPM_P2
2022/02/08 00:00:12;;;;;;;10.60;2.72;;;;;;;2.66;73.32;101141.17;1742209;81;20993;-88
2022/02/08 00:02:44;;;;;;;9.05;2.72;;;;;;;2.62;73.24;101146.99;1744150;82;21040;-87
2022/02/08 00:05:11;;;;;;;11.88;3.00;;;;;;;2.53;73.20;101147.33;1743752;81;21028;-88
2022/02/08 00:07:38;;;;;;;16.85;3.22;;;;;;;2.44;73.20;101152.31;1743797;82;21013;-86
2022/02/08 00:10:05;;;;;;;10.82;3.20;;;;;;;2.33;73.22;101154.24;1743366;81;21787;-84
2022/02/08 00:12:32;;;;;;;14.73;3.33;;;;;;;2.23;73.30;101152.72;1743429;82;20981;-84
2022/02/08 00:14:59;;;;;;;16.32;2.90;;;;;;;2.14;73.40;101159.54;1743240;82;21652;-84
2022/02/08 00:17:25;;;;;;;11.35;2.92;;;;;;;2.07;73.51;101153.44;1743512;82;21032;-85
2022/02/08 00:19:52;;;;;;;13.25;3.02;;;;;;;2.02;73.61;101166.92;1743553;82;20965;-85
2022/02/08 00:22:18;;;;;;;9.50;3.02;;;;;;;1.96;73.78;101172.60;1743656;81;21733;-85
2022/02/08 00:24:45;;;;;;;12.03;3.25;;;;;;;1.90;73.83;101176.99;1743536;82;20977;-85
2022/02/08 00:27:12;;;;;;;10.88;3.35;;;;;;;1.86;73.94;101176.67;1743491;81;21096;-85
2022/02/08 00:29:38;;;;;;;14.43;3.33;;;;;;;1.81;74.04;101179.37;1743578;82;21518;-85
2022/02/08 00:32:06;;;;;;;10.00;2.90;;;;;;;1.78;74.14;101179.16;1743719;82;20989;-84
2022/02/08 00:34:33;;;;;;;9.65;2.50;;;;;;;1.73;74.18;101184.95;1743569;82;21964;-85
2022/02/08 00:36:59;;;;;;;14.40;3.15;;;;;;;1.67;74.30;101188.44;1743614;82;21514;-85
2022/02/08 00:39:29;;;;;;;9.53;2.33;;;;;;;1.65;74.34;101194.30;1743454;81;20982;-85
2022/02/08 00:41:54;;;;;;;8.50;2.77;;;;;;;1.60;74.40;101200.48;1743458;80;21451;-85
2022/02/08 00:44:30;;;;;;;13.00;3.20;;;;;;;1.53;74.46;101196.97;1743511;81;20985;-85
2022/02/08 00:47:00;;;;;;;14.65;3.40;;;;;;;1.49;74.61;101206.64;1741749;81;21903;-85
2022/02/08 00:49:27;;;;;;;14.40;3.10;;;;;;;1.46;74.71;101199.93;1741804;80;20980;-85
2022/02/08 00:51:57;;;;;;;9.70;2.75;;;;;;;1.42;74.77;101199.22;1742102;82;21439;-85
2022/02/08 00:54:20;;;;;;;11.08;2.83;;;;;;;1.40;74.90;101197.81;1742441;81;21493;-85
2022/02/08 00:56:46;;;;;;;9.55;2.95;;;;;;;1.41;74.96;101194.81;1743599;81;21001;-88
2022/02/08 00:59:13;;;;;;;8.80;3.00;;;;;;;1.38;74.87;101201.11;1743638;82;21731;-88
2022/02/08 01:01:40;;;;;;;9.85;3.10;;;;;;;1.36;75.08;101197.11;1743821;82;20957;-88
2022/02/08 01:04:08;;;;;;;13.32;2.52;;;;;;;1.33;75.12;101208.18;1743832;81;21438;-86
2022/02/08 01:06:35;;;;;;;11.10;2.83;;;;;;;1.34;75.26;101202.59;1715072;82;20981;-87
2022/02/08 01:09:14;;;;;;;12.75;3.22;;;;;;;1.31;75.25;101202.36;1747905;81;20996;-87
2022/02/08 01:11:39;;;;;;;8.40;2.45;;;;;;;1.30;75.32;101205.77;1749309;80;21876;-87
2022/02/08 01:14:12;;;;;;;10.50;3.10;;;;;;;1.27;75.48;101202.55;1741814;82;20969;-86
2022/02/08 01:16:39;;;;;;;5.45;2.52;;;;;;;1.25;75.45;101211.91;1741740;82;21020;-88
2022/02/08 01:19:06;;;;;;;9.20;2.70;;;;;;;1.24;75.57;101214.39;1741913;81;20997;-87
2022/02/08 01:21:33;;;;;;;7.10;2.42;;;;;;;1.22;75.65;101219.50;1742112;81;21416;-88
2022/02/08 01:24:00;;;;;;;12.68;2.98;;;;;;;1.22;75.68;101214.69;1742013;82;21740;-88
2022/02/08 01:26:27;;;;;;;6.72;2.65;;;;;;;1.18;75.83;101217.45;1742112;82;20962;-87
2022/02/08 01:29:04;;;;;;;10.00;2.40;;;;;;;1.17;75.83;101224.75;1742046;82;20977;-88
2022/02/08 01:31:27;;;;;;;13.28;3.00;;;;;;;1.15;75.88;101221.16;1741157;80;21193;-88
2022/02/08 01:34:11;;;;;;;9.63;2.70;;;;;;;1.13;75.90;101231.41;1742169;82;20949;-87
2022/02/08 01:39:16;;;;;;;8.80;2.10;;;;;;;1.06;76.04;101233.06;1749500;82;21036;-87
2022/02/08 01:41:57;;;;;;;10.28;2.50;;;;;;;1.05;76.09;101240.72;1748814;81;20945;-87
2022/02/08 01:47:14;;;;;;;8.53;2.65;;;;;;;0.95;76.19;101243.06;1749808;81;21691;-86
2022/02/08 01:49:56;;;;;;;8.08;2.90;;;;;;;0.99;76.24;101258.44;1748442;81;21859;-86
2022/02/08 01:52:05;;;;;;;7.25;2.45;;;;;;;0.95;76.33;101264.69;1745726;82;21423;-86
2022/02/08 01:54:32;;;;;;;10.65;2.65;;;;;;;0.94;76.35;101271.98;1749309;82;21039;-86
2022/02/08 01:56:58;;;;;;;8.88;2.65;;;;;;;0.92;76.34;101274.86;1749339;82;21067;-85
2022/02/08 01:59:25;;;;;;;12.15;2.35;;;;;;;0.91;76.43;101273.05;1749356;82;20997;-85
2022/02/08 02:01:51;;;;;;;9.75;2.08;;;;;;;0.90;76.44;101270.34;1749168;82;21857;-86
2022/02/08 02:04:18;;;;;;;7.42;2.35;;;;;;;0.88;76.42;101275.44;1749330;82;20977;-86
2022/02/08 02:06:45;;;;;;;9.13;2.92;;;;;;;0.86;76.41;101275.69;1749278;82;21497;-85
2022/02/08 02:09:11;;;;;;;8.40;2.37;;;;;;;0.84;76.40;101273.39;1739059;80;21543;-85
2022/02/08 02:11:39;;;;;;;6.75;2.00;;;;;;;0.82;76.40;101280.16;1725622;81;21071;-85
2022/02/08 02:14:05;;;;;;;6.72;1.85;;;;;;;0.78;76.40;101278.14;1725948;81;22432;-85
2022/02/08 02:18:58;;;;;;;6.25;2.02;;;;;;;0.71;76.39;101281.98;1725865;82;21021;-85
2022/02/08 02:21:27;;;;;;;10.48;2.35;;;;;;;0.69;76.39;101287.83;1726146;83;21440;-85
2022/02/08 02:23:53;;;;;;;11.12;2.27;;;;;;;0.66;76.40;101291.11;1726157;81;20998;-85
2022/02/08 02:26:20;;;;;;;9.53;2.52;;;;;;;0.62;76.46;101290.38;1726132;81;21742;-85
2022/02/08 02:28:46;;;;;;;12.15;2.27;;;;;;;0.61;76.46;101297.63;1726079;83;20946;-85
2022/02/08 02:31:13;;;;;;;6.58;2.25;;;;;;;0.58;76.48;101296.09;1726202;83;21060;-85
2022/02/08 02:33:42;;;;;;;6.22;2.47;;;;;;;0.56;76.56;101302.49;1726122;83;21037;-85
2022/02/08 02:36:09;;;;;;;7.85;2.15;;;;;;;0.53;76.61;101293.59;1726341;83;21077;-87
2022/02/08 02:38:38;;;;;;;9.95;2.30;;;;;;;0.53;76.77;101299.66;1726383;83;21709;-87
2022/02/08 02:41:06;;;;;;;10.10;2.72;;;;;;;0.52;76.88;101296.95;1726197;82;21510;-87
2022/02/08 02:43:33;;;;;;;7.83;2.60;;;;;;;0.51;76.92;101286.10;1726350;83;20958;-87
2022/02/08 02:46:02;;;;;;;9.33;2.12;;;;;;;0.51;77.00;101298.65;1726152;82;20994;-89
2022/02/08 02:48:28;;;;;;;12.20;2.60;;;;;;;0.49;77.06;101301.52;1726013;82;20970;-88
2022/02/08 02:50:54;;;;;;;10.50;2.83;;;;;;;0.50;77.18;101312.77;1726286;81;21752;-89
2022/02/08 02:53:23;;;;;;;5.45;1.80;;;;;;;0.50;77.29;101306.30;1726191;82;20982;-89
2022/02/08 02:55:50;;;;;;;11.22;2.60;;;;;;;0.51;77.39;101303.83;1726313;81;21060;-89
2022/02/08 02:58:17;;;;;;;11.10;2.40;;;;;;;0.51;77.44;101315.89;1726615;83;21021;-89
2022/02/08 03:00:52;;;;;;;10.90;2.60;;;;;;;0.51;77.48;101315.48;1726851;83;21002;-88
2022/02/08 03:03:31;;;;;;;7.28;2.30;;;;;;;0.52;77.56;101315.08;1725757;82;21776;-88
2022/02/08 03:06:08;;;;;;;12.05;2.65;;;;;;;0.52;77.62;101319.86;1724579;82;20985;-89
2022/02/08 03:19:07;;;;;;;10.95;3.00;;;;;;;0.44;77.80;101331.75;1726419;83;21010;-89
2022/02/08 03:21:33;;;;;;;13.58;3.02;;;;;;;0.43;77.88;101331.23;1726568;83;20966;-89
2022/02/08 03:24:00;;;;;;;13.30;3.15;;;;;;;0.40;77.98;101334.50;1726475;83;20978;-89
2022/02/08 03:26:27;;;;;;;14.50;3.60;;;;;;;0.40;78.10;101333.20;1726183;82;21013;-89
2022/02/08 03:28:53;;;;;;;12.05;3.17;;;;;;;0.42;78.28;101329.45;1726450;83;21716;-89
2022/02/08 03:31:20;;;;;;;14.20;3.30;;;;;;;0.41;78.32;101325.03;1726449;83;20950;-90
2022/02/08 03:33:47;;;;;;;13.40;3.42;;;;;;;0.43;78.41;101328.64;1726722;83;20958;-88
2022/02/08 03:36:13;;;;;;;11.30;2.50;;;;;;;0.41;78.52;101329.81;1726144;83;21029;-87
2022/02/08 03:38:44;;;;;;;15.98;3.50;;;;;;;0.42;78.61;101338.11;1726262;82;21016;-87
2022/02/08 03:41:10;;;;;;;14.28;3.67;;;;;;;0.42;78.68;101330.34;1726222;81;21758;-88
2022/02/08 03:43:40;;;;;;;15.45;3.65;;;;;;;0.44;78.72;101337.83;1726331;82;20978;-87
2022/02/08 03:46:11;;;;;;;16.23;3.62;;;;;;;0.44;78.71;101332.64;1726256;83;21087;-87
2022/02/08 03:48:36;;;;;;;9.23;2.90;;;;;;;0.43;78.75;101328.64;1726534;81;21428;-86
2022/02/08 03:51:09;;;;;;;12.28;3.17;;;;;;;0.42;78.79;101326.86;1726222;83;20975;-87
2022/02/08 03:53:34;;;;;;;9.75;2.70;;;;;;;0.41;78.84;101327.22;1726156;80;21198;-86
2022/02/08 03:56:01;;;;;;;11.63;3.20;;;;;;;0.41;78.86;101327.63;1725981;81;20969;-88
2022/02/08 03:58:27;;;;;;;18.20;3.55;;;;;;;0.40;78.91;101323.25;1726344;83;21079;-88
2022/02/08 04:03:23;;;;;;;11.93;3.10;;;;;;;0.45;79.20;101334.47;1726542;83;21006;-87
2022/02/08 04:05:51;;;;;;;16.02;3.90;;;;;;;0.53;79.39;101340.22;1726164;82;22646;-88
2022/02/08 04:08:18;;;;;;;9.78;3.15;;;;;;;0.62;79.64;101338.31;1726145;80;20970;-87
2022/02/08 04:10:45;;;;;;;15.30;3.47;;;;;;;0.74;79.80;101332.72;1729888;80;20989;-86
2022/02/08 04:13:23;;;;;;;15.18;3.27;;;;;;;0.88;79.92;101330.23;1732934;82;20958;-86
2022/02/08 04:32:37;;;;;;;14.60;3.50;;;;;;;1.75;79.77;101336.48;1736226;82;21143;-87
2022/02/08 04:35:12;;;;;;;12.80;3.35;;;;;;;1.86;79.67;101330.75;1733278;80;20982;-86
2022/02/08 04:45:29;;;;;;;12.58;3.30;;;;;;;2.21;79.27;101300.18;1736392;82;21937;-88
2022/02/08 04:48:41;;;;;;;17.32;3.47;;;;;;;2.28;79.19;101301.10;1735049;81;21021;-88
2022/02/08 04:50:21;;;;;;;16.48;3.67;;;;;;;2.34;79.12;101306.29;1719901;82;21028;-86
2022/02/08 04:52:48;;;;;;;12.15;3.30;;;;;;;2.41;79.05;101301.13;1736189;82;21035;-87
2022/02/08 04:55:38;;;;;;;15.32;3.50;;;;;;;2.46;78.95;101304.94;1736556;82;21012;-91
2022/02/08 04:58:13;;;;;;;13.58;3.80;;;;;;;2.51;78.86;101306.11;1735116;80;22642;-88
2022/02/08 05:00:32;;;;;;;19.27;3.77;;;;;;;2.57;78.78;101307.33;1733119;81;20982;-88
2022/02/08 05:26:49;;;;;;;18.82;4.10;;;;;;;2.64;78.75;101296.54;1734970;80;21000;-93
2022/02/08 05:43:18;;;;;;;21.77;4.87;;;;;;;3.32;77.73;101261.43;1757691;81;20972;-88
2022/02/08 05:48:26;;;;;;;17.05;4.62;;;;;;;3.37;77.69;101267.83;1757416;81;20984;-86
2022/02/08 05:51:05;;;;;;;19.15;4.25;;;;;;;3.43;77.75;101263.41;1757045;80;21683;-89
2022/02/08 05:53:30;;;;;;;25.23;5.62;;;;;;;3.47;77.67;101261.48;1756574;80;21469;-87
2022/02/08 05:55:56;;;;;;;18.73;3.70;;;;;;;3.50;77.58;101258.67;1757611;81;20961;-91
2022/02/08 05:58:22;;;;;;;20.20;3.52;;;;;;;3.54;77.51;101254.97;1757742;81;20989;-88
2022/02/08 06:00:49;;;;;;;27.73;4.85;;;;;;;3.56;77.47;101255.95;1757286;81;21018;-88
2022/02/08 06:03:16;;;;;;;25.92;4.67;;;;;;;3.59;77.37;101262.66;1756115;81;21728;-86
2022/02/08 06:05:43;;;;;;;18.15;4.45;;;;;;;3.60;77.33;101253.63;1755781;81;20966;-85
2022/02/08 06:08:10;;;;;;;25.52;6.22;;;;;;;3.64;77.28;101245.59;1756081;81;21014;-93
2022/02/08 06:10:46;;;;;;;25.90;5.40;;;;;;;3.66;77.20;101246.59;1750794;81;21456;-93
2022/02/08 06:13:05;;;;;;;23.32;4.83;;;;;;;3.67;77.12;101236.69;1744738;82;20987;-90
2022/02/08 06:15:32;;;;;;;20.35;4.55;;;;;;;3.68;77.04;101231.58;1745275;82;21725;-86
2022/02/08 06:17:58;;;;;;;22.75;5.40;;;;;;;3.68;77.02;101230.27;1744957;82;21049;-86
2022/02/08 06:20:25;;;;;;;21.93;4.45;;;;;;;3.69;76.88;101228.14;1744952;81;21006;-84
2022/02/08 06:22:52;;;;;;;22.22;4.72;;;;;;;3.69;76.82;101220.75;1744809;82;21149;-84
2022/02/08 06:25:18;;;;;;;14.33;4.20;;;;;;;3.71;76.77;101221.73;1744860;82;21502;-85
2022/02/08 06:27:48;;;;;;;22.25;4.92;;;;;;;3.71;76.64;101228.25;1745081;82;21187;-85
2022/02/08 06:30:14;;;;;;;25.52;4.87;;;;;;;3.73;76.60;101220.53;1744877;82;20994;-86
2022/02/08 06:32:41;;;;;;;23.57;5.03;;;;;;;3.75;76.55;101218.50;1745044;82;21007;-87
2022/02/08 06:35:14;;;;;;;17.73;4.60;;;;;;;3.77;76.51;101218.60;1745205;82;21043;-87
2022/02/08 06:37:39;;;;;;;21.02;4.42;;;;;;;3.80;76.44;101213.59;1744609;82;21471;-86
2022/02/08 06:40:07;;;;;;;24.67;4.62;;;;;;;3.83;76.42;101209.84;1745145;81;22561;-86
2022/02/08 06:42:34;;;;;;;17.67;4.70;;;;;;;3.83;76.37;101210.77;1744972;82;21691;-85
2022/02/08 06:45:02;;;;;;;24.63;4.47;;;;;;;3.86;76.35;101208.73;1745143;82;21042;-86
2022/02/08 06:47:31;;;;;;;18.67;4.22;;;;;;;3.87;76.32;101205.34;1745026;82;21033;-86
2022/02/08 06:49:58;;;;;;;21.12;5.47;;;;;;;3.90;76.27;101205.50;1745134;82;21022;-87
2022/02/08 06:52:26;;;;;;;21.10;4.53;;;;;;;3.90;76.23;101196.39;1745099;82;21672;-85
2022/02/08 06:54:52;;;;;;;24.75;4.87;;;;;;;3.91;76.20;101194.29;1744629;82;20959;-84
2022/02/08 06:57:20;;;;;;;20.50;4.47;;;;;;;3.94;76.21;101195.78;1744562;82;21093;-86
2022/02/08 06:59:52;;;;;;;24.07;4.87;;;;;;;3.97;76.19;101203.76;1744741;82;20974;-85
2022/02/08 07:02:17;;;;;;;26.95;5.10;;;;;;;4.00;76.12;101199.16;1744616;82;21062;-85
2022/02/08 07:04:44;;;;;;;25.08;4.58;;;;;;;4.03;76.05;101196.30;1744779;82;21673;-85
2022/02/08 07:07:15;;;;;;;22.10;4.22;;;;;;;4.05;76.04;101207.73;1744642;82;20987;-85
2022/02/08 07:09:39;;;;;;;25.20;4.90;;;;;;;4.08;76.01;101202.68;1744200;82;21018;-85
2022/02/08 07:12:08;;;;;;;22.58;5.12;;;;;;;4.11;75.98;101198.45;1757504;81;20988;-85
2022/02/08 07:14:35;;;;;;;23.60;6.00;;;;;;;4.13;75.92;101209.48;1756143;80;21512;-85
2022/02/08 07:17:02;;;;;;;30.70;5.50;;;;;;;4.14;75.90;101211.67;1747364;81;21832;-85
2022/02/08 07:19:29;;;;;;;32.42;5.35;;;;;;;4.16;75.84;101211.35;1747577;82;21010;-85
2022/02/08 07:21:55;;;;;;;25.50;6.55;;;;;;;4.17;75.85;101202.33;1747576;82;21025;-85
2022/02/08 07:24:22;;;;;;;22.93;5.33;;;;;;;4.18;75.82;101193.68;1747456;82;21515;-85
2022/02/08 07:26:52;;;;;;;27.25;5.58;;;;;;;4.21;75.82;101192.98;1747621;82;21119;-85
2022/02/08 07:29:19;;;;;;;24.85;4.22;;;;;;;4.24;75.79;101194.06;1747570;82;21818;-85
2022/02/08 07:31:54;;;;;;;24.60;5.33;;;;;;;4.27;75.72;101186.39;1747472;82;20982;-85
2022/02/08 07:34:21;;;;;;;22.95;5.37;;;;;;;4.31;75.74;101186.17;1746831;81;20974;-85
2022/02/08 07:37:12;;;;;;;27.77;6.35;;;;;;;4.36;75.68;101176.03;1747081;81;21026;-85
2022/02/08 07:39:40;;;;;;;22.80;5.20;;;;;;;4.40;75.64;101171.06;1746458;81;21113;-85
2022/02/08 07:42:04;;;;;;;24.27;5.20;;;;;;;4.44;75.53;101181.25;1747131;81;21751;-85
2022/02/08 07:44:31;;;;;;;35.05;5.72;;;;;;;4.44;75.42;101178.23;1747561;81;20949;-85
2022/02/08 07:46:57;;;;;;;29.48;6.00;;;;;;;4.47;75.43;101173.20;1747683;81;21054;-85
2022/02/08 07:49:24;;;;;;;26.70;5.50;;;;;;;4.52;75.41;101169.95;1747568;82;21017;-85
2022/02/08 07:51:51;;;;;;;30.02;5.95;;;;;;;4.55;75.35;101161.90;1747678;82;20975;-85
2022/02/08 07:54:17;;;;;;;16.37;4.58;;;;;;;4.58;75.28;101159.86;1747596;82;21729;-85
2022/02/08 07:56:44;;;;;;;24.10;5.45;;;;;;;4.59;75.24;101156.04;1747597;82;21583;-85
2022/02/08 07:59:11;;;;;;;24.27;6.58;;;;;;;4.62;75.19;101140.99;1747665;82;21010;-86
2022/02/08 08:01:37;;;;;;;27.75;6.15;;;;;;;4.65;75.17;101145.97;1747604;82;21030;-86
2022/02/08 08:04:04;;;;;;;30.37;5.78;;;;;;;4.68;75.06;101145.23;1747679;82;21047;-86
2022/02/08 08:06:31;;;;;;;31.52;5.70;;;;;;;4.66;75.00;101126.89;1747601;82;21729;-85
2022/02/08 08:08:58;;;;;;;58.05;22.50;;;;;;;4.68;74.98;101131.78;1747478;82;20986;-85
2022/02/08 08:11:24;;;;;;;66.92;29.35;;;;;;;4.70;74.93;101131.86;1741735;82;21527;-85
2022/02/08 08:14:01;;;;;;;37.20;11.65;;;;;;;4.70;74.90;101120.13;1737506;82;21484;-85
2022/02/08 08:16:40;;;;;;;27.35;9.30;;;;;;;4.71;74.88;101111.89;1738944;82;21022;-85
2022/02/08 08:18:59;;;;;;;27.13;7.90;;;;;;;4.71;74.85;101115.42;1737302;82;21752;-85
2022/02/08 08:21:24;;;;;;;23.62;6.45;;;;;;;4.72;74.76;101113.70;1739951;82;21010;-85
2022/02/08 08:23:52;;;;;;;24.12;5.85;;;;;;;4.71;74.79;101115.42;1741500;82;21446;-86
2022/02/08 08:26:18;;;;;;;30.10;6.50;;;;;;;4.71;74.80;101108.91;1747738;80;20991;-85
2022/02/08 08:28:45;;;;;;;26.65;5.42;;;;;;;4.71;74.78;101114.50;1747841;81;21002;-85
2022/02/08 08:31:12;;;;;;;17.95;4.75;;;;;;;4.72;74.81;101104.16;1747713;80;21726;-85
2022/02/08 08:33:38;;;;;;;25.82;6.45;;;;;;;4.73;74.71;101102.44;1720473;82;21033;-86
2022/02/08 08:36:05;;;;;;;23.27;5.70;;;;;;;4.71;74.69;101089.34;1747838;82;20978;-85
2022/02/08 08:38:33;;;;;;;27.73;5.55;;;;;;;4.70;74.67;101081.44;1747812;82;21006;-85
2022/02/08 08:41:21;;;;;;;28.23;5.28;;;;;;;4.67;74.68;101088.28;1747918;82;21029;-85
2022/02/08 08:44:06;;;;;;;24.57;5.28;;;;;;;4.68;74.64;101090.05;1722611;82;21738;-86
2022/02/08 08:51:53;;;;;;;23.18;5.37;;;;;;;4.72;74.65;101101.55;1747978;82;21038;-85
2022/02/08 08:54:20;;;;;;;20.57;5.45;;;;;;;4.72;74.64;101090.23;1747719;82;22503;-85
2022/02/08 08:56:48;;;;;;;21.85;5.35;;;;;;;4.77;74.67;101080.95;1747902;82;21813;-85
2022/02/08 08:59:15;;;;;;;34.15;6.35;;;;;;;4.84;74.65;101086.96;1747837;82;21532;-85
2022/02/08 09:01:42;;;;;;;23.92;5.70;;;;;;;4.87;74.58;101081.50;1747819;82;20998;-85
2022/02/08 09:04:11;;;;;;;29.25;7.40;;;;;;;4.90;74.53;101089.00;1747889;82;21550;-85
2022/02/08 09:06:38;;;;;;;23.02;8.40;;;;;;;4.95;74.49;101088.84;1747173;82;21010;-85
2022/02/08 09:09:10;;;;;;;33.28;10.60;;;;;;;4.99;74.42;101085.58;1747724;82;21591;-85
2022/02/08 09:14:14;;;;;;;34.83;8.53;;;;;;;5.01;74.17;101082.25;1747466;82;20966;-85
2022/02/08 09:16:51;;;;;;;37.93;10.15;;;;;;;4.99;74.13;101070.84;1747816;81;20983;-84
2022/02/08 09:19:41;;;;;;;22.05;7.37;;;;;;;4.99;74.08;101070.84;1746638;81;21006;-85
2022/02/08 09:24:50;;;;;;;36.95;15.03;;;;;;;5.06;74.17;101050.75;1747934;82;21041;-85
2022/02/08 09:27:22;;;;;;;55.85;20.68;;;;;;;5.08;74.17;101043.02;1744414;81;21070;-85
2022/02/08 09:32:20;;;;;;;35.23;11.63;;;;;;;5.14;74.22;101029.38;1748271;82;21007;-87
2022/02/08 09:34:46;;;;;;;40.55;14.87;;;;;;;5.15;74.27;101024.25;1748013;82;21742;-87
2022/02/08 09:37:16;;;;;;;37.30;10.93;;;;;;;5.18;74.31;101028.72;1748149;81;20993;-86
2022/02/08 09:39:44;;;;;;;50.28;17.57;;;;;;;5.24;74.42;101025.14;1748180;82;20959;-87
2022/02/08 09:42:11;;;;;;;32.50;12.03;;;;;;;5.24;74.38;101024.72;1748224;82;21014;-86
2022/02/08 09:44:38;;;;;;;36.42;11.78;;;;;;;5.20;74.26;101022.78;1748154;82;21483;-87
2022/02/08 09:47:12;;;;;;;34.85;12.40;;;;;;;5.21;74.30;101019.33;1748409;82;22611;-86
2022/02/08 09:49:41;;;;;;;24.85;8.03;;;;;;;5.21;74.33;101020.64;1747872;80;20975;-87
2022/02/08 09:52:06;;;;;;;40.88;14.30;;;;;;;5.24;74.40;101010.37;1747704;82;20986;-87
2022/02/08 09:54:33;;;;;;;25.92;7.83;;;;;;;5.28;74.46;100999.67;1720885;82;21484;-86
2022/02/08 09:57:00;;;;;;;23.02;7.28;;;;;;;5.36;74.56;100990.50;1748235;82;21002;-87
2022/02/08 09:59:26;;;;;;;32.60;13.70;;;;;;;5.41;74.41;100994.66;1748259;81;21737;-86
2022/02/08 10:01:56;;;;;;;29.12;14.05;;;;;;;5.48;74.53;100992.85;1747921;82;20949;-84
2022/02/08 10:04:23;;;;;;;21.23;6.67;;;;;;;5.58;74.62;100985.94;1747337;82;21077;-85
2022/02/08 10:06:51;;;;;;;21.02;6.75;;;;;;;5.71;74.64;100983.94;1747820;80;21002;-87
2022/02/08 10:09:18;;;;;;;19.90;7.53;;;;;;;5.77;74.54;100979.00;1748300;82;20998;-87
2022/02/08 10:11:56;;;;;;;34.43;17.73;;;;;;;5.85;74.47;100973.72;1748133;80;22488;-88
2022/02/08 10:14:25;;;;;;;20.65;12.65;;;;;;;5.94;74.41;100964.12;1748004;82;20986;-85
2022/02/08 10:22:45;;;;;;;16.30;6.20;;;;;;;6.05;73.95;100958.13;1748213;82;21066;-87
2022/02/08 10:25:16;;;;;;;16.57;4.28;;;;;;;5.94;73.86;100952.37;1748030;82;21807;-87
2022/02/08 10:27:48;;;;;;;12.33;3.95;;;;;;;5.87;73.95;100941.14;1747554;82;21018;-87
2022/02/08 10:38:46;;;;;;;7.37;2.90;;;;;;;5.49;74.13;100917.60;1748376;82;22578;-87
2022/02/08 10:41:19;;;;;;;11.15;3.20;;;;;;;5.36;74.25;100901.75;1748244;82;21437;-87
2022/02/08 10:44:08;;;;;;;11.38;3.17;;;;;;;5.32;75.16;100887.19;1748477;82;21026;-87
2022/02/08 10:46:35;;;;;;;7.30;3.25;;;;;;;5.41;75.09;100894.16;1748233;82;21913;-88
2022/02/08 10:49:14;;;;;;;7.60;3.02;;;;;;;5.59;75.30;100894.13;1748351;82;20974;-87
2022/02/08 10:51:50;;;;;;;8.58;3.25;;;;;;;5.71;75.22;100880.77;1747822;82;22429;-87
2022/02/08 10:55:01;;;;;;;6.25;2.70;;;;;;;5.86;75.34;100881.48;1722181;82;21001;-86
2022/02/08 10:56:50;;;;;;;6.67;2.80;;;;;;;6.15;75.25;100877.59;1734840;82;21010;-87
2022/02/08 10:59:24;;;;;;;7.25;2.52;;;;;;;6.35;75.24;100873.25;1748039;82;21883;-87
2022/02/08 11:02:01;;;;;;;7.92;3.33;;;;;;;6.47;74.83;100874.61;1747253;82;21018;-88
2022/02/08 11:04:32;;;;;;;5.97;2.47;;;;;;;6.47;74.61;100870.69;1744464;82;22783;-87
2022/02/08 11:06:48;;;;;;;6.95;2.65;;;;;;;6.50;74.56;100863.87;1744773;82;21491;-87
2022/02/08 11:14:34;;;;;;;5.72;2.47;;;;;;;6.85;74.80;100857.95;1745183;82;20987;-87
2022/02/08 11:22:30;;;;;;;4.58;2.35;;;;;;;7.31;74.09;100829.70;1745068;82;21004;-87
2022/02/08 11:24:50;;;;;;;6.45;3.22;;;;;;;7.31;73.97;100833.63;1743416;82;21009;-87
2022/02/08 11:27:19;;;;;;;3.87;2.10;;;;;;;7.24;73.78;100831.59;1745054;82;20967;-88
2022/02/08 11:30:00;;;;;;;5.60;1.67;;;;;;;7.15;73.71;100815.12;1744953;82;22692;-88
2022/02/08 11:41:51;;;;;;;5.08;1.98;;;;;;;6.97;73.61;100799.56;1745209;82;21026;-87
2022/02/08 11:45:43;;;;;;;3.27;1.82;;;;;;;6.85;73.70;100808.63;1745153;81;21015;-86
2022/02/08 11:48:31;;;;;;;2.70;1.70;;;;;;;6.85;73.84;100808.24;1722692;82;21014;-86
2022/02/08 12:09:45;;;;;;;2.62;1.95;;;;;;;6.74;74.08;100793.41;1745171;82;21690;-86
2022/02/08 12:49:16;;;;;;;15.25;8.88;;;;;;;6.61;75.12;100778.92;1748135;82;20966;-87
2022/02/08 12:54:14;;;;;;;15.30;9.88;;;;;;;6.78;74.99;100778.73;1729199;82;20998;-86
2022/02/08 12:56:42;;;;;;;11.97;7.55;;;;;;;6.83;74.98;100781.09;1745982;81;20983;-87
2022/02/08 14:01:49;;;;;;;3.12;2.37;;;;;;;6.89;76.68;100705.48;1747597;82;21534;-84
2022/02/08 14:05:08;;;;;;;3.58;2.40;;;;;;;6.87;76.74;100707.54;1747261;82;21018;-85
2022/02/08 14:06:59;;;;;;;3.62;2.60;;;;;;;6.86;76.90;100720.16;1743593;82;21014;-85
2022/02/08 14:09:43;;;;;;;3.15;2.42;;;;;;;6.87;77.03;100719.31;1746944;82;21061;-85
2022/02/08 14:12:44;;;;;;;10.72;7.47;;;;;;;6.88;77.14;100716.77;1744893;80;21923;-84
2022/02/08 14:14:51;;;;;;;5.95;3.83;;;;;;;6.89;77.25;100718.95;1743537;82;21022;-84
2022/02/08 14:25:26;;;;;;;3.85;2.77;;;;;;;6.85;77.62;100703.58;1747903;82;22600;-85
2022/02/08 14:30:41;;;;;;;3.10;2.08;;;;;;;6.84;77.79;100703.52;1747944;82;20997;-85
2022/02/08 14:35:59;;;;;;;2.30;1.90;;;;;;;6.84;78.04;100692.62;1748027;82;21029;-85
2022/02/08 14:49:34;;;;;;;3.37;2.05;;;;;;;6.93;78.53;100688.18;1748007;80;20976;-85
2022/02/08 15:05:30;;;;;;;2.95;1.77;;;;;;;7.00;79.01;100677.09;1747981;80;21744;-85
2022/02/08 15:08:00;;;;;;;3.15;1.75;;;;;;;7.00;79.05;100677.09;1747089;82;20955;-85
2022/02/08 15:10:26;;;;;;;2.98;2.12;;;;;;;7.01;79.24;100678.89;1746872;80;21015;-85
2022/02/08 15:12:54;;;;;;;3.67;1.82;;;;;;;7.02;79.28;100662.37;1747136;80;21961;-84
2022/02/08 15:15:36;;;;;;;4.08;1.57;;;;;;;6.95;79.14;100672.12;1747180;82;21003;-84
2022/02/08 15:17:47;;;;;;;2.42;1.30;;;;;;;6.85;79.10;100669.96;1743451;82;21709;-85
2022/02/08 15:20:14;;;;;;;3.25;1.50;;;;;;;6.70;79.02;100659.40;1747767;82;20955;-85
2022/02/08 15:22:40;;;;;;;4.97;2.08;;;;;;;6.58;79.20;100670.25;1747951;81;21010;-84
2022/02/08 15:25:13;;;;;;;3.50;2.15;;;;;;;6.52;79.44;100679.59;1747913;82;20987;-86
2022/02/08 15:27:40;;;;;;;5.28;2.05;;;;;;;6.49;79.69;100684.69;1748175;82;21018;-86
2022/02/08 15:30:10;;;;;;;4.28;2.33;;;;;;;6.50;79.94;100696.52;1748389;81;22393;-86
2022/02/08 15:32:38;;;;;;;3.55;2.40;;;;;;;6.55;80.18;100709.77;1748409;82;20971;-86
2022/02/08 15:35:07;;;;;;;3.85;2.08;;;;;;;6.62;80.35;100705.27;1748061;81;21026;-87
2022/02/08 15:37:33;;;;;;;3.70;2.20;;;;;;;6.68;80.41;100713.77;1748280;82;21482;-86
2022/02/08 15:40:01;;;;;;;4.35;2.40;;;;;;;6.75;80.48;100706.66;1748418;82;21002;-86
2022/02/08 15:42:32;;;;;;;4.42;2.92;;;;;;;6.81;80.49;100709.11;1748223;82;22626;-87
2022/02/08 15:45:05;;;;;;;4.10;2.58;;;;;;;6.87;80.57;100721.54;1748272;82;21003;-86
2022/02/08 15:47:28;;;;;;;3.20;2.70;;;;;;;6.93;80.55;100716.53;1747364;82;20991;-86
2022/02/08 15:50:05;;;;;;;5.80;3.85;;;;;;;6.99;80.57;100725.92;1748282;82;21508;-87
2022/02/08 15:52:56;;;;;;;4.92;3.30;;;;;;;7.05;80.60;100725.27;1747170;82;20978;-86
2022/02/08 15:54:59;;;;;;;6.12;3.10;;;;;;;7.11;80.62;100735.09;1744113;82;21744;-88
2022/02/08 16:01:02;;;;;;;4.17;2.33;;;;;;;7.19;80.77;100731.06;1748234;80;20986;-86
2022/02/08 16:08:15;;;;;;;3.95;2.52;;;;;;;7.25;80.69;100722.13;1748383;82;22619;-86
2022/02/08 16:10:49;;;;;;;6.40;2.40;;;;;;;7.26;80.52;100741.33;1746710;82;21002;-87
2022/02/08 16:13:20;;;;;;;4.67;2.40;;;;;;;7.28;80.35;100738.35;1745562;80;21078;-87
2022/02/08 16:15:51;;;;;;;5.40;2.77;;;;;;;7.29;80.18;100744.08;1745368;82;20994;-87
2022/02/08 16:18:16;;;;;;;4.05;2.50;;;;;;;7.26;79.89;100742.22;1745139;82;21006;-88
2022/02/08 16:26:17;;;;;;;4.92;2.65;;;;;;;6.91;79.09;100735.22;1748531;82;21026;-88
2022/02/08 16:28:56;;;;;;;8.15;2.75;;;;;;;6.78;78.90;100757.38;1745892;82;21170;-88
2022/02/08 16:55:30;;;;;;;9.33;3.50;;;;;;;5.78;78.49;100807.98;1722854;82;20978;-87
2022/02/08 17:00:32;;;;;;;7.33;3.00;;;;;;;5.74;78.54;100833.87;1748425;82;21738;-86
2022/02/08 17:03:04;;;;;;;9.85;3.15;;;;;;;5.68;78.50;100827.08;1748257;81;21507;-83
2022/02/08 17:05:27;;;;;;;13.75;3.60;;;;;;;5.64;78.67;100826.05;1747389;82;21530;-86
2022/02/08 17:07:54;;;;;;;8.25;3.20;;;;;;;5.60;78.62;100829.34;1748505;81;21147;-84